Time;durP1;ratioP1;P1;durP2;ratioP2;P2;SDS_P1;SDS_P2;PMS_P1;PMS_P2;Temp;Humidity;BMP_temperature;BMP_pressure;BME280_temperature;BME280_humidity;BME280_pressure;Samples;Min_cycle;Max_cycle;Signal;HPM_P1;HPM_P2
2022/04/23 00:00:24;;;;;;;36.30;29.08;;;;;;;5.74;100.00;98244.44;2065641;28;20199;-74
2022/04/23 00:01:24;;;;;;;34.03;27.50;;;;;;;5.76;100.00;98235.13;2065842;28;20200;-74
2022/04/23 00:02:26;;;;;;;31.53;28.17;;;;;;;5.89;100.00;98238.91;2065571;28;20197;-74
2022/04/23 00:03:27;;;;;;;32.08;28.58;;;;;;;6.03;100.00;98239.81;2065982;28;20193;-74
2022/04/23 00:04:30;;;;;;;30.90;27.03;;;;;;;6.10;100.00;98240.25;2065563;28;20300;-74
2022/04/23 00:05:32;;;;;;;31.77;27.88;;;;;;;5.99;100.00;98240.66;2057769;28;20208;-74
2022/04/23 00:06:35;;;;;;;32.50;28.67;;;;;;;5.91;100.00;98236.81;2065351;28;20271;-74
2022/04/23 00:07:38;;;;;;;35.53;28.98;;;;;;;5.90;100.00;98237.84;2065536;28;20197;-74
2022/04/23 00:08:39;;;;;;;37.10;28.83;;;;;;;5.85;100.00;98237.94;2057841;28;20724;-74
2022/04/23 00:09:40;;;;;;;35.17;28.48;;;;;;;5.91;100.00;98244.78;2057511;28;20222;-74
2022/04/23 00:10:43;;;;;;;34.70;29.50;;;;;;;5.95;100.00;98237.81;2057464;28;20298;-74
2022/04/23 00:11:45;;;;;;;36.03;28.38;;;;;;;5.97;100.00;98234.88;2065954;28;20193;-74
2022/04/23 00:12:48;;;;;;;34.65;28.90;;;;;;;6.10;100.00;98239.47;2066174;28;20583;-74
2022/04/23 00:13:48;;;;;;;36.03;28.67;;;;;;;6.28;100.00;98240.53;2066139;28;20193;-74
2022/04/23 00:14:53;;;;;;;32.67;28.40;;;;;;;6.15;100.00;98234.88;2066139;28;20193;-74
2022/04/23 00:15:54;;;;;;;34.53;28.98;;;;;;;6.00;100.00;98235.13;2066276;28;20193;-74
2022/04/23 00:16:57;;;;;;;33.30;29.30;;;;;;;5.99;100.00;98228.22;2065518;28;20283;-74
2022/04/23 00:17:59;;;;;;;34.67;28.33;;;;;;;5.95;100.00;98233.31;2057679;28;20202;-74
2022/04/23 00:19:06;;;;;;;33.47;28.70;;;;;;;5.93;100.00;98230.16;2065606;28;20625;-74
2022/04/23 00:20:08;;;;;;;35.63;28.17;;;;;;;5.89;100.00;98230.97;2066194;28;20193;-74
2022/04/23 00:21:11;;;;;;;35.15;29.42;;;;;;;5.84;100.00;98231.84;2064835;28;20296;-73
2022/04/23 00:22:12;;;;;;;33.75;28.70;;;;;;;5.86;100.00;98234.22;2065158;28;20292;-74
2022/04/23 00:23:15;;;;;;;35.00;29.17;;;;;;;5.82;100.00;98222.59;2065591;28;20192;-74
2022/04/23 00:24:15;;;;;;;34.63;27.70;;;;;;;5.82;100.00;98230.53;2065429;28;20200;-74
2022/04/23 00:25:17;;;;;;;31.40;27.90;;;;;;;5.83;100.00;98224.97;2065165;28;20678;-74
2022/04/23 00:26:20;;;;;;;32.08;27.23;;;;;;;5.89;100.00;98228.34;2065500;28;20628;-74
2022/04/23 00:27:24;;;;;;;35.03;29.08;;;;;;;5.82;100.00;98223.41;2066065;28;20601;-74
2022/04/23 00:28:28;;;;;;;31.42;28.02;;;;;;;5.87;100.00;98220.69;2065821;28;20205;-74
2022/04/23 00:29:30;;;;;;;36.88;28.33;;;;;;;5.83;100.00;98224.97;2065303;28;20189;-73
2022/04/23 00:30:32;;;;;;;32.30;28.73;;;;;;;5.80;100.00;98230.81;2065216;28;20328;-74
2022/04/23 00:31:32;;;;;;;33.55;28.75;;;;;;;5.73;100.00;98219.78;2065552;28;20800;-74
2022/04/23 00:32:35;;;;;;;32.63;27.40;;;;;;;5.76;100.00;98221.09;2065029;28;20598;-74
2022/04/23 00:33:37;;;;;;;33.85;28.75;;;;;;;5.82;100.00;98217.31;2064964;28;20209;-74
2022/04/23 00:34:40;;;;;;;33.20;28.10;;;;;;;5.86;100.00;98220.97;2057454;28;20288;-74
2022/04/23 00:35:41;;;;;;;37.30;28.73;;;;;;;5.81;100.00;98213.09;2065695;28;20213;-74
2022/04/23 00:36:44;;;;;;;30.80;26.98;;;;;;;5.92;100.00;98214.56;2065670;28;20649;-74
2022/04/23 00:37:45;;;;;;;32.05;28.20;;;;;;;5.88;100.00;98210.88;2065336;28;20223;-74
2022/04/23 00:38:49;;;;;;;34.63;28.15;;;;;;;5.79;100.00;98212.59;2065618;28;20229;-74
2022/04/23 00:39:51;;;;;;;37.70;29.00;;;;;;;5.72;100.00;98215.59;2065403;28;20193;-74
2022/04/23 00:40:53;;;;;;;36.08;28.63;;;;;;;5.71;100.00;98215.88;2065550;28;20188;-73
2022/04/23 00:41:59;;;;;;;34.97;28.45;;;;;;;5.67;100.00;98211.16;2065322;28;20215;-74
2022/04/23 00:43:05;;;;;;;34.28;28.15;;;;;;;5.62;100.00;98221.78;2057896;28;20273;-74
2022/04/23 00:44:07;;;;;;;33.00;28.88;;;;;;;5.58;100.00;98218.16;2057617;28;20206;-74
2022/04/23 00:45:09;;;;;;;32.85;28.98;;;;;;;5.58;100.00;98228.75;2065666;28;20189;-74
2022/04/23 00:46:11;;;;;;;36.42;28.83;;;;;;;5.58;100.00;98228.75;2065986;28;20200;-73
2022/04/23 00:47:12;;;;;;;38.55;27.35;;;;;;;5.57;100.00;98227.16;2066216;28;20200;-74
2022/04/23 00:48:15;;;;;;;30.87;27.53;;;;;;;5.66;100.00;98225.47;2064936;28;20259;-74
2022/04/23 00:49:17;;;;;;;36.40;28.27;;;;;;;5.74;100.00;98225.91;2065382;28;20201;-74
2022/04/23 00:50:21;;;;;;;37.88;27.92;;;;;;;5.70;100.00;98219.59;2064407;28;20252;-74
2022/04/23 00:51:22;;;;;;;29.77;26.50;;;;;;;5.67;100.00;98220.97;2065025;28;20780;-74
2022/04/23 00:52:24;;;;;;;32.45;27.08;;;;;;;5.76;100.00;98218.47;2065343;28;20584;-74
2022/04/23 00:53:25;;;;;;;34.63;27.02;;;;;;;5.85;100.00;98216.75;2057336;28;20691;-74
2022/04/23 00:54:30;;;;;;;28.90;25.77;;;;;;;5.78;100.00;98221.59;2057276;28;20199;-74
2022/04/23 00:55:33;;;;;;;32.35;26.80;;;;;;;5.83;100.00;98218.91;2065512;28;20185;-74
2022/04/23 00:56:36;;;;;;;31.00;26.70;;;;;;;5.80;100.00;98216.81;2065891;28;20651;-74
2022/04/23 00:57:38;;;;;;;30.88;27.50;;;;;;;5.85;100.00;98214.09;2065941;28;20193;-74
2022/04/23 00:58:39;;;;;;;29.80;25.92;;;;;;;5.87;100.00;98211.94;2065892;28;20548;-74
2022/04/23 00:59:40;;;;;;;30.40;26.75;;;;;;;5.79;100.00;98215.25;2066013;28;20655;-74
2022/04/23 01:00:44;;;;;;;30.37;27.03;;;;;;;5.74;100.00;98204.72;2065188;28;20585;-74
2022/04/23 01:01:48;;;;;;;31.02;27.17;;;;;;;5.71;100.00;98221.94;2057496;28;20221;-74
2022/04/23 01:02:53;;;;;;;29.33;26.15;;;;;;;5.67;100.00;98216.44;2065363;28;20200;-74
2022/04/23 01:03:57;;;;;;;30.75;27.05;;;;;;;5.64;100.00;98214.34;2065170;28;20232;-74
2022/04/23 01:04:59;;;;;;;35.20;26.17;;;;;;;5.58;100.00;98220.81;2057581;28;20200;-74
2022/04/23 01:06:00;;;;;;;30.92;25.92;;;;;;;5.58;100.00;98225.31;2056640;28;20197;-74
2022/04/23 01:07:03;;;;;;;28.83;25.33;;;;;;;5.59;100.00;98224.22;2065444;28;20209;-74
2022/04/23 01:08:05;;;;;;;29.05;25.85;;;;;;;5.55;100.00;98225.84;2065830;28;20279;-74
2022/04/23 01:09:09;;;;;;;35.15;27.42;;;;;;;5.58;100.00;98228.75;2065846;28;20216;-74
2022/04/23 01:10:13;;;;;;;31.00;26.17;;;;;;;5.62;100.00;98218.38;2065498;28;20233;-74
2022/04/23 01:11:17;;;;;;;31.02;26.40;;;;;;;5.63;100.00;98228.66;2065853;28;20239;-74
2022/04/23 01:12:19;;;;;;;28.92;25.92;;;;;;;5.58;100.00;98227.94;2065150;28;20233;-74
2022/04/23 01:13:25;;;;;;;30.33;27.15;;;;;;;5.55;100.00;98229.28;2065222;28;20567;-74
2022/04/23 01:14:28;;;;;;;28.17;25.05;;;;;;;5.58;100.00;98233.25;2072935;28;20176;-74
2022/04/23 01:15:31;;;;;;;28.45;25.48;;;;;;;5.64;100.00;98227.59;2066105;28;20193;-74
2022/04/23 01:16:33;;;;;;;31.10;25.35;;;;;;;5.65;100.00;98215.16;2065835;28;20244;-74
2022/04/23 01:17:34;;;;;;;28.33;25.17;;;;;;;5.59;100.00;98219.72;2065867;28;20204;-73
2022/04/23 01:18:41;;;;;;;29.60;25.55;;;;;;;5.63;100.00;98230.53;2065135;28;20189;-74
2022/04/23 01:19:42;;;;;;;28.70;25.60;;;;;;;5.66;100.00;98225.47;2065351;28;20181;-74
2022/04/23 01:20:45;;;;;;;28.60;25.50;;;;;;;5.67;100.00;98227.03;2065110;28;20196;-74
2022/04/23 01:21:47;;;;;;;28.90;25.80;;;;;;;5.63;100.00;98228.66;2064827;28;20231;-74
2022/04/23 01:22:53;;;;;;;32.38;26.63;;;;;;;5.66;100.00;98216.75;2065891;28;20189;-74
2022/04/23 01:23:56;;;;;;;29.27;26.17;;;;;;;5.55;100.00;98224.00;2065454;28;20264;-74
2022/04/23 01:24:58;;;;;;;29.67;26.48;;;;;;;5.50;100.00;98226.72;2065229;28;20224;-73
2022/04/23 01:25:59;;;;;;;28.40;25.42;;;;;;;5.48;100.00;98228.06;2065808;28;20276;-74
2022/04/23 01:27:02;;;;;;;29.37;25.77;;;;;;;5.45;100.00;98221.47;2065135;28;20201;-73
2022/04/23 01:28:03;;;;;;;30.00;26.30;;;;;;;5.39;100.00;98215.47;2065232;28;20719;-74
2022/04/23 01:29:05;;;;;;;30.23;25.63;;;;;;;5.43;100.00;98220.97;2065309;28;20207;-74
2022/04/23 01:30:10;;;;;;;29.92;26.20;;;;;;;5.43;100.00;98215.69;2065164;28;20247;-74
2022/04/23 01:31:12;;;;;;;30.10;25.75;;;;;;;5.45;100.00;98223.34;2065133;28;20740;-74
2022/04/23 01:32:12;;;;;;;29.65;26.23;;;;;;;5.41;100.00;98219.69;2057126;28;20205;-74
2022/04/23 01:33:16;;;;;;;29.53;26.40;;;;;;;5.46;100.00;98223.03;2057128;28;20197;-74
2022/04/23 01:34:17;;;;;;;30.42;25.85;;;;;;;5.45;100.00;98229.41;2065203;28;20203;-74
2022/04/23 01:35:18;;;;;;;28.40;25.43;;;;;;;5.48;100.00;98223.56;2064688;28;20205;-74
2022/04/23 01:36:23;;;;;;;28.27;25.35;;;;;;;5.47;100.00;98226.47;2064734;28;20581;-74
2022/04/23 01:37:26;;;;;;;28.65;25.30;;;;;;;5.62;100.00;98227.09;2057437;28;20197;-73
2022/04/23 01:38:28;;;;;;;27.08;24.17;;;;;;;5.67;100.00;98221.75;2065328;28;20339;-74
2022/04/23 01:39:29;;;;;;;28.60;25.50;;;;;;;5.64;100.00;98224.94;2065762;28;20193;-74
2022/04/23 01:40:31;;;;;;;28.67;25.57;;;;;;;5.65;100.00;98223.88;2065969;28;20691;-74
2022/04/23 01:41:32;;;;;;;28.98;25.77;;;;;;;5.65;100.00;98213.31;2065771;28;20431;-73
2022/04/23 01:42:33;;;;;;;31.33;26.40;;;;;;;5.56;100.00;98217.66;2065830;28;20193;-74
2022/04/23 01:43:36;;;;;;;29.35;25.50;;;;;;;5.51;100.00;98217.72;2065955;28;20201;-74
2022/04/23 01:44:38;;;;;;;29.38;26.23;;;;;;;5.63;100.00;98217.28;2065855;28;20268;-73
2022/04/23 01:45:39;;;;;;;29.77;24.75;;;;;;;5.55;100.00;98226.63;2065755;28;20280;-74
2022/04/23 01:46:42;;;;;;;28.30;25.25;;;;;;;5.47;100.00;98221.19;2064695;28;20201;-74
2022/04/23 01:47:43;;;;;;;28.60;25.48;;;;;;;5.43;100.00;98223.63;2056892;28;20201;-74
2022/04/23 01:48:45;;;;;;;29.60;24.70;;;;;;;5.55;100.00;98223.22;2065331;28;20220;-74
2022/04/23 01:49:46;;;;;;;30.55;26.33;;;;;;;5.55;100.00;98216.06;2065670;28;20193;-74
2022/04/23 01:50:50;;;;;;;28.03;25.03;;;;;;;5.49;100.00;98219.06;2065676;28;20272;-74
2022/04/23 01:51:56;;;;;;;28.45;25.13;;;;;;;5.42;100.00;98218.63;2065654;28;20259;-74
2022/04/23 01:53:00;;;;;;;27.63;24.50;;;;;;;5.47;100.00;98221.97;2065922;28;20231;-74
2022/04/23 01:54:01;;;;;;;26.88;24.08;;;;;;;5.45;100.00;98220.69;2065705;28;20196;-74
2022/04/23 01:55:02;;;;;;;26.83;24.13;;;;;;;5.40;100.00;98221.56;2066217;28;20240;-74
2022/04/23 01:56:03;;;;;;;27.08;24.35;;;;;;;5.35;100.00;98219.75;2066930;28;20204;-74
2022/04/23 01:57:05;;;;;;;27.17;24.27;;;;;;;5.35;100.00;98219.75;2066674;28;20204;-74
2022/04/23 01:58:06;;;;;;;28.55;25.23;;;;;;;5.37;100.00;98222.88;2066688;28;20200;-74
2022/04/23 01:59:09;;;;;;;31.33;25.00;;;;;;;5.31;100.00;98218.75;2066119;28;20247;-74
2022/04/23 02:00:14;;;;;;;27.95;24.70;;;;;;;5.30;100.00;98225.09;2066545;28;20231;-74
2022/04/23 02:01:17;;;;;;;28.30;25.30;;;;;;;5.27;100.00;98223.00;2058713;28;20206;-74
2022/04/23 02:02:18;;;;;;;27.33;24.42;;;;;;;5.26;100.00;98220.66;2066870;28;20197;-74
2022/04/23 02:03:19;;;;;;;28.63;25.53;;;;;;;5.26;100.00;98216.13;2066472;28;20308;-74
2022/04/23 02:04:22;;;;;;;32.75;24.50;;;;;;;5.25;100.00;98219.06;2066559;28;20205;-74
2022/04/23 02:05:24;;;;;;;28.10;24.98;;;;;;;5.23;100.00;98224.66;2066673;28;20267;-74
2022/04/23 02:06:25;;;;;;;28.67;24.08;;;;;;;5.24;100.00;98220.94;2066742;28;20271;-74
2022/04/23 02:07:28;;;;;;;27.40;24.70;;;;;;;5.19;100.00;98215.69;2067349;28;20193;-74
2022/04/23 02:08:29;;;;;;;32.47;24.42;;;;;;;5.25;100.00;98219.06;2067133;28;20554;-74
2022/04/23 02:09:33;;;;;;;28.80;25.60;;;;;;;5.26;100.00;98218.00;2066494;28;20197;-74
2022/04/23 02:10:34;;;;;;;27.25;24.42;;;;;;;5.22;100.00;98217.00;2058697;28;20791;-74
2022/04/23 02:11:37;;;;;;;28.27;24.93;;;;;;;5.18;100.00;98213.31;2066595;28;20624;-74
2022/04/23 02:12:39;;;;;;;26.40;23.77;;;;;;;5.18;100.00;98223.91;2066094;28;20296;-74
2022/04/23 02:13:40;;;;;;;27.87;24.93;;;;;;;5.16;100.00;98215.47;2066619;28;20189;-74
2022/04/23 02:14:42;;;;;;;27.52;24.58;;;;;;;5.16;100.00;98223.41;2066450;28;20594;-73
2022/04/23 02:15:43;;;;;;;27.83;24.88;;;;;;;5.16;100.00;98212.81;2066562;28;20655;-74
2022/04/23 02:16:45;;;;;;;27.23;24.42;;;;;;;5.16;100.00;98226.84;2066384;28;20200;-74
2022/04/23 02:17:49;;;;;;;27.83;24.65;;;;;;;5.14;100.00;98223.69;2066654;28;20200;-73
2022/04/23 02:18:51;;;;;;;27.00;24.20;;;;;;;5.14;100.00;98220.25;2066470;28;20201;-73
2022/04/23 02:19:53;;;;;;;26.75;23.85;;;;;;;5.16;100.00;98220.75;2066745;28;20200;-73
2022/04/23 02:20:56;;;;;;;28.90;24.65;;;;;;;5.16;100.00;98226.84;2066551;28;20560;-73
2022/04/23 02:21:57;;;;;;;27.85;25.08;;;;;;;5.16;100.00;98221.53;2074020;28;20200;-74
2022/04/23 02:23:02;;;;;;;28.08;25.08;;;;;;;5.11;100.00;98218.94;2066398;28;20189;-74
2022/04/23 02:24:05;;;;;;;28.60;24.55;;;;;;;5.10;100.00;98222.66;2066562;28;20257;-74
2022/04/23 02:25:08;;;;;;;28.17;25.02;;;;;;;5.16;100.00;98223.41;2066362;28;20201;-73
2022/04/23 02:26:10;;;;;;;27.20;24.35;;;;;;;5.17;100.00;98222.34;2058511;28;20197;-74
2022/04/23 02:27:11;;;;;;;27.88;25.05;;;;;;;5.16;100.00;98226.03;2066505;28;20189;-74
2022/04/23 02:28:15;;;;;;;27.83;24.83;;;;;;;5.08;100.00;98228.22;2067246;28;20197;-74
2022/04/23 02:29:17;;;;;;;27.88;24.88;;;;;;;5.03;100.00;98224.84;2067010;28;20193;-73
2022/04/23 02:30:21;;;;;;;27.42;24.60;;;;;;;4.99;100.00;98229.91;2066035;28;20224;-73
2022/04/23 02:31:22;;;;;;;28.25;23.98;;;;;;;4.96;100.00;98235.75;2066783;28;20493;-74
2022/04/23 02:32:23;;;;;;;28.00;24.43;;;;;;;4.97;100.00;98234.69;2066982;28;20271;-74
2022/04/23 02:33:26;;;;;;;26.33;23.65;;;;;;;4.95;100.00;98231.56;2066299;28;20197;-74
2022/04/23 02:34:31;;;;;;;27.65;24.10;;;;;;;4.93;100.00;98230.22;2066413;28;20200;-74
2022/04/23 02:35:34;;;;;;;27.00;24.20;;;;;;;4.92;100.00;98233.94;2066933;28;20243;-74
2022/04/23 02:36:37;;;;;;;27.30;24.55;;;;;;;4.89;100.00;98226.59;2066621;28;20228;-74
2022/04/23 02:37:40;;;;;;;26.85;24.00;;;;;;;4.89;100.00;98232.66;2066952;28;20193;-74
2022/04/23 02:38:43;;;;;;;28.00;25.10;;;;;;;4.85;100.00;98231.63;2065857;28;20271;-74
2022/04/23 02:39:44;;;;;;;27.50;24.58;;;;;;;4.85;100.00;98236.13;2058400;28;20256;-74
2022/04/23 02:40:46;;;;;;;28.57;24.80;;;;;;;4.82;100.00;98234.84;2058232;28;20249;-74
2022/04/23 02:41:49;;;;;;;27.50;24.38;;;;;;;4.83;100.00;98233.75;2066586;28;20192;-74
2022/04/23 02:42:51;;;;;;;27.88;24.83;;;;;;;4.82;100.00;98238.25;2067013;28;20200;-74
2022/04/23 02:43:57;;;;;;;26.95;24.10;;;;;;;4.81;100.00;98235.91;2066917;28;20733;-74
2022/04/23 02:45:01;;;;;;;27.73;24.92;;;;;;;4.80;100.00;98239.63;2066308;28;20197;-74
2022/04/23 02:46:02;;;;;;;27.23;24.33;;;;;;;4.79;100.00;98240.69;2066671;28;20189;-74
2022/04/23 02:47:04;;;;;;;28.23;23.90;;;;;;;4.75;100.00;98231.72;2067143;28;20276;-73
2022/04/23 02:48:06;;;;;;;27.08;24.30;;;;;;;4.73;100.00;98234.66;2067100;28;20189;-74
2022/04/23 02:49:07;;;;;;;28.83;24.02;;;;;;;4.75;100.00;98239.66;2065965;28;20564;-74
2022/04/23 02:50:10;;;;;;;32.80;25.63;;;;;;;4.73;100.00;98239.13;2066463;28;20217;-73
2022/04/23 02:51:15;;;;;;;30.70;24.55;;;;;;;4.70;100.00;98231.78;2065735;28;20212;-73
2022/04/23 02:52:18;;;;;;;28.15;24.95;;;;;;;4.73;100.00;98236.50;2066618;28;20260;-73
2022/04/23 02:53:20;;;;;;;28.80;25.33;;;;;;;4.74;100.00;98230.16;2066169;28;20204;-73
2022/04/23 02:54:22;;;;;;;28.27;25.33;;;;;;;4.74;100.00;98230.16;2058144;28;20271;-74
2022/04/23 02:55:25;;;;;;;27.90;25.10;;;;;;;4.73;100.00;98241.78;2066301;28;20190;-74
2022/04/23 02:56:28;;;;;;;27.13;24.33;;;;;;;4.74;100.00;98241.50;2066103;28;20205;-74
2022/04/23 02:57:30;;;;;;;28.15;24.92;;;;;;;4.73;100.00;98241.78;2058359;28;20584;-73
2022/04/23 02:58:31;;;;;;;27.20;24.50;;;;;;;4.71;100.00;98246.56;2066280;28;20268;-74
2022/04/23 02:59:35;;;;;;;26.90;24.00;;;;;;;4.67;100.00;98241.03;2065748;28;20208;-74
2022/04/23 03:00:38;;;;;;;27.63;24.17;;;;;;;4.63;100.00;98245.31;2066449;28;20216;-73
2022/04/23 03:01:40;;;;;;;27.60;24.23;;;;;;;4.61;100.00;98244.00;2065794;28;20200;-74
2022/04/23 03:02:42;;;;;;;27.35;24.45;;;;;;;4.54;100.00;98247.75;2066216;28;20639;-74
2022/04/23 03:03:46;;;;;;;26.52;23.70;;;;;;;4.52;100.00;98236.69;2066076;28;20219;-74
2022/04/23 03:04:48;;;;;;;28.38;25.45;;;;;;;4.50;100.00;98254.63;2066330;28;20221;-73
2022/04/23 03:05:53;;;;;;;29.53;24.93;;;;;;;4.45;100.00;98249.41;2065459;28;20193;-73
2022/04/23 03:06:54;;;;;;;27.95;24.85;;;;;;;4.43;100.00;98245.44;2065278;28;20483;-74
2022/04/23 03:07:56;;;;;;;27.70;24.70;;;;;;;4.40;100.00;98243.38;2066127;28;20576;-73
2022/04/23 03:08:57;;;;;;;27.63;24.73;;;;;;;4.38;100.00;98246.28;2066818;28;20212;-73
2022/04/23 03:10:03;;;;;;;26.55;23.92;;;;;;;4.37;100.00;98250.00;2066884;28;20237;-74
2022/04/23 03:11:06;;;;;;;26.90;24.20;;;;;;;4.35;100.00;98251.34;2066978;28;20217;-74
2022/04/23 03:12:10;;;;;;;26.92;24.20;;;;;;;4.36;100.00;98250.28;2066737;28;20188;-74
2022/04/23 03:13:11;;;;;;;28.92;24.65;;;;;;;4.35;100.00;98252.13;2066023;28;20197;-74
2022/04/23 03:14:12;;;;;;;27.57;24.67;;;;;;;4.43;100.00;98256.00;2058040;28;20202;-73
2022/04/23 03:15:16;;;;;;;28.00;24.75;;;;;;;4.43;100.00;98250.72;2066110;28;20655;-73
2022/04/23 03:16:18;;;;;;;27.00;24.13;;;;;;;4.37;100.00;98247.34;2066652;28;20208;-73
2022/04/23 03:17:19;;;;;;;30.58;23.95;;;;;;;4.35;100.00;98254.78;2066820;28;20189;-74
2022/04/23 03:18:21;;;;;;;28.00;23.90;;;;;;;4.32;100.00;98249.22;2065600;28;20247;-74
2022/04/23 03:19:22;;;;;;;27.55;24.33;;;;;;;4.28;100.00;98256.91;2058030;28;20194;-74
2022/04/23 03:20:24;;;;;;;27.20;24.23;;;;;;;4.25;100.00;98258.25;2057942;28;20202;-74
2022/04/23 03:21:25;;;;;;;26.70;23.90;;;;;;;4.23;100.00;98257.72;2065484;28;20244;-74
2022/04/23 03:22:26;;;;;;;26.70;24.07;;;;;;;4.19;100.00;98255.94;2065911;28;20288;-74
2022/04/23 03:23:29;;;;;;;26.23;23.42;;;;;;;4.16;100.00;98254.59;2066008;28;20193;-73
2022/04/23 03:24:31;;;;;;;25.98;23.35;;;;;;;4.12;100.00;98255.44;2066248;28;20228;-74
2022/04/23 03:25:34;;;;;;;27.25;23.90;;;;;;;4.09;100.00;98254.13;2066718;28;20587;-74
2022/04/23 03:26:36;;;;;;;26.95;24.08;;;;;;;4.07;100.00;98258.88;2066762;28;20571;-74
2022/04/23 03:27:37;;;;;;;27.42;23.30;;;;;;;4.04;100.00;98258.66;2065908;28;20773;-74
2022/04/23 03:28:39;;;;;;;26.38;23.65;;;;;;;4.01;100.00;98260.00;2066009;28;20679;-74
2022/04/23 03:29:40;;;;;;;28.60;24.33;;;;;;;4.00;100.00;98262.88;2066534;28;20197;-73
2022/04/23 03:30:44;;;;;;;28.33;24.33;;;;;;;3.97;100.00;98265.00;2065636;28;20256;-74
2022/04/23 03:31:45;;;;;;;26.80;23.98;;;;;;;3.97;100.00;98261.59;2058201;28;20574;-74
2022/04/23 03:32:47;;;;;;;26.80;23.88;;;;;;;3.95;100.00;98272.41;2065968;28;20189;-74
2022/04/23 03:33:48;;;;;;;28.60;23.90;;;;;;;4.08;100.00;98257.03;2065833;28;20197;-74
2022/04/23 03:34:51;;;;;;;27.73;24.75;;;;;;;4.08;100.00;98260.47;2065957;28;20715;-73
2022/04/23 03:35:52;;;;;;;28.35;25.15;;;;;;;4.13;100.00;98262.28;2066234;28;20193;-73
2022/04/23 03:36:54;;;;;;;28.97;25.90;;;;;;;4.11;100.00;98261.78;2066163;28;20220;-73
2022/04/23 03:37:55;;;;;;;28.15;25.20;;;;;;;4.02;100.00;98252.88;2065948;28;20193;-74
2022/04/23 03:38:58;;;;;;;30.17;25.63;;;;;;;4.00;100.00;98268.16;2066478;28;20286;-74
2022/04/23 03:39:59;;;;;;;28.08;25.10;;;;;;;3.96;100.00;98262.66;2065729;28;20205;-74
2022/04/23 03:41:05;;;;;;;27.70;24.70;;;;;;;3.89;100.00;98262.94;2065984;28;20185;-74
2022/04/23 03:42:06;;;;;;;27.60;24.58;;;;;;;3.88;100.00;98269.28;2073948;28;20192;-74
2022/04/23 03:43:08;;;;;;;29.20;24.75;;;;;;;3.83;100.00;98263.25;2074251;28;20196;-73
2022/04/23 03:44:09;;;;;;;26.95;24.15;;;;;;;3.81;100.00;98266.13;2066530;28;20193;-74
2022/04/23 03:45:11;;;;;;;27.70;24.70;;;;;;;3.78;100.00;98271.97;2065830;28;20236;-73
2022/04/23 03:46:13;;;;;;;29.08;25.88;;;;;;;3.77;100.00;98265.13;2065892;28;20779;-74
2022/04/23 03:47:16;;;;;;;28.65;25.55;;;;;;;3.75;100.00;98272.53;2065666;28;20221;-74
2022/04/23 03:48:17;;;;;;;28.10;24.48;;;;;;;3.73;100.00;98263.28;2057850;28;20567;-74
2022/04/23 03:49:22;;;;;;;29.02;25.90;;;;;;;3.72;100.00;98273.03;2057905;28;20198;-74
2022/04/23 03:50:22;;;;;;;30.38;25.58;;;;;;;3.71;100.00;98271.47;2066020;28;20247;-74
2022/04/23 03:51:24;;;;;;;29.83;25.57;;;;;;;3.71;100.00;98276.75;2065129;28;20236;-74
2022/04/23 03:52:26;;;;;;;29.90;26.30;;;;;;;3.81;100.00;98273.28;2057713;28;20202;-74
2022/04/23 03:53:28;;;;;;;28.98;25.77;;;;;;;3.85;100.00;98275.09;2057793;28;20257;-74
2022/04/23 03:54:29;;;;;;;31.75;26.98;;;;;;;3.90;100.00;98272.44;2065795;28;20204;-74
2022/04/23 03:55:32;;;;;;;31.40;26.43;;;;;;;3.93;100.00;98269.25;2066439;28;20200;-74
2022/04/23 03:56:34;;;;;;;30.80;26.30;;;;;;;3.99;100.00;98267.38;2065732;28;20228;-74
2022/04/23 03:57:44;;;;;;;31.20;26.52;;;;;;;4.07;100.00;98268.66;2057765;28;20206;-74
2022/04/23 03:58:46;;;;;;;29.40;26.20;;;;;;;4.07;100.00;98269.44;2065837;28;20688;-74
2022/04/23 03:59:47;;;;;;;31.52;26.67;;;;;;;4.07;100.00;98273.94;2066422;28;20663;-74
2022/04/23 04:00:49;;;;;;;31.37;26.47;;;;;;;4.13;100.00;98272.84;2066289;28;20537;-74
2022/04/23 04:01:52;;;;;;;29.77;26.58;;;;;;;4.19;100.00;98274.41;2066318;28;20664;-74
2022/04/23 04:02:56;;;;;;;31.48;26.88;;;;;;;4.30;100.00;98273.28;2066307;28;20189;-74
2022/04/23 04:03:57;;;;;;;30.27;26.75;;;;;;;4.33;100.00;98278.00;2065567;28;20201;-74
2022/04/23 04:04:58;;;;;;;33.03;27.17;;;;;;;4.36;100.00;98276.69;2065898;28;20191;-73
2022/04/23 04:06:00;;;;;;;30.08;26.60;;;;;;;4.36;100.00;98272.19;2065049;28;20456;-75
2022/04/23 04:07:03;;;;;;;29.92;25.98;;;;;;;4.38;100.00;98270.06;2065781;28;20545;-74
2022/04/23 04:08:04;;;;;;;30.90;26.23;;;;;;;4.36;100.00;98271.41;2066454;28;20196;-74
2022/04/23 04:09:08;;;;;;;28.95;25.85;;;;;;;4.34;100.00;98274.28;2065586;28;20197;-74
2022/04/23 04:10:10;;;;;;;33.60;27.88;;;;;;;4.33;100.00;98267.44;2065575;28;20283;-74
2022/04/23 04:11:11;;;;;;;30.00;26.85;;;;;;;4.32;100.00;98260.56;2066111;28;20209;-74
2022/04/23 04:12:14;;;;;;;33.80;26.85;;;;;;;4.46;100.00;98274.75;2066285;28;20200;-74
2022/04/23 04:13:26;;;;;;;31.70;26.75;;;;;;;4.40;100.00;98275.06;2065574;28;20185;-74
2022/04/23 04:14:28;;;;;;;34.17;27.70;;;;;;;4.58;100.00;98273.59;2058081;28;20754;-74
2022/04/23 04:15:31;;;;;;;32.67;27.90;;;;;;;4.62;100.00;98280.72;2065603;28;20189;-73
2022/04/23 04:16:34;;;;;;;33.25;27.05;;;;;;;4.66;100.00;98284.38;2066148;28;20231;-74
2022/04/23 04:17:37;;;;;;;32.83;27.17;;;;;;;4.71;100.00;98278.28;2066088;28;20193;-74
2022/04/23 04:18:39;;;;;;;28.52;25.52;;;;;;;4.77;100.00;98279.78;2065080;28;20233;-73
2022/04/23 04:19:40;;;;;;;31.90;26.60;;;;;;;4.76;100.00;98276.34;2065570;28;20690;-73
2022/04/23 04:20:44;;;;;;;31.92;25.77;;;;;;;4.79;100.00;98277.69;2066164;28;20196;-73
2022/04/23 04:21:47;;;;;;;30.52;26.45;;;;;;;4.72;100.00;98278.00;2065599;28;20228;-73
2022/04/23 04:22:48;;;;;;;35.83;27.33;;;;;;;4.75;100.00;98274.00;2066099;28;20200;-74
2022/04/23 04:23:50;;;;;;;28.57;25.47;;;;;;;4.73;100.00;98276.91;2066259;28;20695;-74
2022/04/23 04:24:52;;;;;;;32.58;26.75;;;;;;;4.69;100.00;98281.19;2064983;28;20295;-73
2022/04/23 04:25:54;;;;;;;31.17;27.60;;;;;;;4.64;100.00;98275.94;2065603;28;20213;-73
2022/04/23 04:26:55;;;;;;;31.92;27.15;;;;;;;4.54;100.00;98274.16;2066264;28;20197;-74
2022/04/23 04:27:59;;;;;;;33.53;27.33;;;;;;;4.56;100.00;98278.38;2065357;28;20237;-74
2022/04/23 04:29:00;;;;;;;30.20;26.50;;;;;;;4.57;100.00;98280.75;2057603;28;20301;-73
2022/04/23 04:30:03;;;;;;;32.87;26.97;;;;;;;4.62;100.00;98282.56;2057143;28;20201;-73
2022/04/23 04:32:24;;;;;;;31.08;27.45;;;;;;;4.60;100.00;98284.69;2051918;28;20261;-73
2022/04/23 04:33:24;;;;;;;31.27;27.85;;;;;;;4.49;100.00;98281.31;2049186;28;20206;-73
2022/04/23 04:34:29;;;;;;;35.57;28.10;;;;;;;4.42;100.00;98278.19;2057587;28;20280;-73
2022/04/23 04:35:31;;;;;;;31.17;26.70;;;;;;;4.52;100.00;98278.94;2058046;28;20236;-74
2022/04/23 04:36:34;;;;;;;29.83;26.63;;;;;;;4.47;100.00;98281.59;2057663;28;20715;-73
2022/04/23 04:37:36;;;;;;;29.38;26.30;;;;;;;4.54;100.00;98282.09;2057357;28;20229;-73
2022/04/23 04:38:37;;;;;;;30.75;26.10;;;;;;;4.54;100.00;98290.00;2049599;28;20665;-73
2022/04/23 04:39:40;;;;;;;32.17;27.97;;;;;;;4.45;100.00;98285.59;2049006;29;20599;-74
2022/04/23 04:40:41;;;;;;;29.80;26.33;;;;;;;4.46;100.00;98281.88;2057511;28;20190;-73
2022/04/23 04:41:43;;;;;;;32.80;26.87;;;;;;;4.39;100.00;98284.81;2057317;28;20222;-73
2022/04/23 04:42:44;;;;;;;33.85;26.52;;;;;;;4.36;100.00;98284.59;2049510;28;20205;-74
2022/04/23 04:43:48;;;;;;;30.80;27.50;;;;;;;4.32;100.00;98286.19;2057352;28;20190;-74
2022/04/23 04:44:49;;;;;;;37.40;27.08;;;;;;;4.30;100.00;98286.47;2058168;28;20280;-73
2022/04/23 04:45:51;;;;;;;30.85;27.52;;;;;;;4.28;100.00;98285.19;2057266;28;20241;-73
2022/04/23 04:46:52;;;;;;;32.75;27.77;;;;;;;4.26;100.00;98280.19;2057424;28;20190;-73
2022/04/23 04:47:53;;;;;;;37.60;27.40;;;;;;;4.25;100.00;98283.84;2057332;28;20206;-74